sensor_id;sensor_type;location;lat;lon;timestamp;pressure;altitude;pressure_sealevel;temperature;humidity
4576;BME280;2300;51.874;8.430;2022-07-22T00:01:47;101021.56;;;18.63;100.00
4576;BME280;2300;51.874;8.430;2022-07-22T00:04:15;101027.13;;;18.68;100.00
4576;BME280;2300;51.874;8.430;2022-07-22T00:06:42;101035.47;;;18.63;100.00
4576;BME280;2300;51.874;8.430;2022-07-22T00:09:09;101034.91;;;18.56;100.00
4576;BME280;2300;51.874;8.430;2022-07-22T00:11:36;101038.81;;;18.55;100.00
4576;BME280;2300;51.874;8.430;2022-07-22T00:14:02;101021.28;;;18.29;100.00
4576;BME280;2300;51.874;8.430;2022-07-22T00:16:29;101032.38;;;18.24;100.00
4576;BME280;2300;51.874;8.430;2022-07-22T00:18:55;101044.00;;;18.11;100.00
4576;BME280;2300;51.874;8.430;2022-07-22T00:21:23;101051.16;;;17.91;100.00
4576;BME280;2300;51.874;8.430;2022-07-22T00:23:50;101042.56;;;17.93;100.00
4576;BME280;2300;51.874;8.430;2022-07-22T00:26:16;101039.41;;;17.74;100.00
4576;BME280;2300;51.874;8.430;2022-07-22T00:28:43;101031.00;;;17.54;100.00
4576;BME280;2300;51.874;8.430;2022-07-22T00:31:09;101044.94;;;17.64;100.00
4576;BME280;2300;51.874;8.430;2022-07-22T00:33:36;101049.94;;;17.67;100.00
4576;BME280;2300;51.874;8.430;2022-07-22T00:36:02;101041.25;;;17.53;100.00
4576;BME280;2300;51.874;8.430;2022-07-22T00:38:30;101064.88;;;17.51;100.00
4576;BME280;2300;51.874;8.430;2022-07-22T00:40:57;101065.91;;;17.40;100.00
4576;BME280;2300;51.874;8.430;2022-07-22T00:43:23;101068.88;;;17.28;100.00
4576;BME280;2300;51.874;8.430;2022-07-22T00:45:50;101066.00;;;17.13;100.00
4576;BME280;2300;51.874;8.430;2022-07-22T00:48:16;101006.66;;;16.77;100.00
4576;BME280;2300;51.874;8.430;2022-07-22T00:50:43;101074.28;;;17.08;100.00
4576;BME280;2300;51.874;8.430;2022-07-22T00:53:11;101069.41;;;16.88;100.00
4576;BME280;2300;51.874;8.430;2022-07-22T00:55:38;101068.25;;;16.84;100.00
4576;BME280;2300;51.874;8.430;2022-07-22T00:58:06;101058.78;;;16.80;100.00
4576;BME280;2300;51.874;8.430;2022-07-22T01:00:32;101086.13;;;16.98;100.00
4576;BME280;2300;51.874;8.430;2022-07-22T01:02:59;101084.38;;;16.87;100.00
4576;BME280;2300;51.874;8.430;2022-07-22T01:05:25;101091.06;;;16.91;100.00
4576;BME280;2300;51.874;8.430;2022-07-22T01:07:52;101082.44;;;16.88;100.00
4576;BME280;2300;51.874;8.430;2022-07-22T01:10:18;101084.94;;;16.89;100.00
4576;BME280;2300;51.874;8.430;2022-07-22T01:12:46;101089.91;;;16.87;100.00
4576;BME280;2300;51.874;8.430;2022-07-22T01:15:13;101080.09;;;16.74;100.00
4576;BME280;2300;51.874;8.430;2022-07-22T01:17:39;101100.13;;;16.82;100.00
4576;BME280;2300;51.874;8.430;2022-07-22T01:20:08;101091.75;;;16.76;100.00
4576;BME280;2300;51.874;8.430;2022-07-22T01:22:35;101092.06;;;16.80;100.00
4576;BME280;2300;51.874;8.430;2022-07-22T01:25:01;101084.06;;;16.84;100.00
4576;BME280;2300;51.874;8.430;2022-07-22T01:27:28;101096.50;;;16.81;100.00
4576;BME280;2300;51.874;8.430;2022-07-22T01:29:55;101038.03;;;16.51;100.00
4576;BME280;2300;51.874;8.430;2022-07-22T01:32:21;101094.28;;;16.78;100.00
4576;BME280;2300;51.874;8.430;2022-07-22T01:34:48;101093.94;;;16.74;100.00
4576;BME280;2300;51.874;8.430;2022-07-22T01:37:16;101092.00;;;16.75;100.00
4576;BME280;2300;51.874;8.430;2022-07-22T01:39:42;101099.78;;;16.73;100.00
4576;BME280;2300;51.874;8.430;2022-07-22T01:42:08;101095.59;;;16.70;100.00
4576;BME280;2300;51.874;8.430;2022-07-22T01:44:35;101100.38;;;16.80;100.00
4576;BME280;2300;51.874;8.430;2022-07-22T01:47:02;101108.59;;;16.70;100.00
4576;BME280;2300;51.874;8.430;2022-07-22T01:49:28;101105.13;;;16.53;100.00
4576;BME280;2300;51.874;8.430;2022-07-22T01:51:55;101109.84;;;16.52;100.00
4576;BME280;2300;51.874;8.430;2022-07-22T01:54:23;101105.63;;;16.50;100.00
4576;BME280;2300;51.874;8.430;2022-07-22T01:56:49;101123.47;;;16.59;100.00
4576;BME280;2300;51.874;8.430;2022-07-22T01:59:16;101105.03;;;16.43;100.00
4576;BME280;2300;51.874;8.430;2022-07-22T02:01:43;101115.69;;;16.56;100.00
4576;BME280;2300;51.874;8.430;2022-07-22T02:04:09;101119.00;;;16.53;100.00
4576;BME280;2300;51.874;8.430;2022-07-22T02:06:35;101119.56;;;16.55;100.00
4576;BME280;2300;51.874;8.430;2022-07-22T02:09:02;101116.00;;;16.59;100.00
4576;BME280;2300;51.874;8.430;2022-07-22T02:11:30;101118.81;;;16.64;100.00
4576;BME280;2300;51.874;8.430;2022-07-22T02:13:57;101114.16;;;16.70;100.00
4576;BME280;2300;51.874;8.430;2022-07-22T02:16:23;101119.19;;;16.73;100.00
4576;BME280;2300;51.874;8.430;2022-07-22T02:18:50;101106.94;;;16.69;100.00
4576;BME280;2300;51.874;8.430;2022-07-22T02:21:17;101110.16;;;16.56;100.00
4576;BME280;2300;51.874;8.430;2022-07-22T02:23:44;101114.59;;;16.57;100.00
4576;BME280;2300;51.874;8.430;2022-07-22T02:26:17;101110.44;;;16.59;100.00
4576;BME280;2300;51.874;8.430;2022-07-22T02:28:45;101114.00;;;16.55;100.00
4576;BME280;2300;51.874;8.430;2022-07-22T02:31:11;101112.75;;;16.67;100.00
4576;BME280;2300;51.874;8.430;2022-07-22T02:33:38;101118.03;;;16.69;100.00
4576;BME280;2300;51.874;8.430;2022-07-22T02:36:05;101012.63;;;16.05;100.00
4576;BME280;2300;51.874;8.430;2022-07-22T02:38:32;101126.03;;;16.65;100.00
4576;BME280;2300;51.874;8.430;2022-07-22T02:40:58;101106.28;;;16.57;100.00
4576;BME280;2300;51.874;8.430;2022-07-22T02:43:25;101109.16;;;16.67;100.00
4576;BME280;2300;51.874;8.430;2022-07-22T02:45:52;101136.97;;;16.77;100.00
4576;BME280;2300;51.874;8.430;2022-07-22T02:48:19;101126.94;;;16.71;100.00
4576;BME280;2300;51.874;8.430;2022-07-22T02:50:45;101135.88;;;16.78;100.00
4576;BME280;2300;51.874;8.430;2022-07-22T02:53:12;101126.97;;;16.76;100.00
4576;BME280;2300;51.874;8.430;2022-07-22T02:55:39;101112.44;;;16.64;100.00
4576;BME280;2300;51.874;8.430;2022-07-22T02:58:05;101099.06;;;16.56;100.00
4576;BME280;2300;51.874;8.430;2022-07-22T03:00:34;101128.56;;;16.67;100.00
4576;BME280;2300;51.874;8.430;2022-07-22T03:03:02;101106.63;;;16.39;100.00
4576;BME280;2300;51.874;8.430;2022-07-22T03:05:28;101122.06;;;16.56;100.00
4576;BME280;2300;51.874;8.430;2022-07-22T03:07:54;101134.59;;;16.64;100.00
4576;BME280;2300;51.874;8.430;2022-07-22T03:10:21;101138.81;;;16.66;100.00
4576;BME280;2300;51.874;8.430;2022-07-22T03:12:48;101127.97;;;16.65;100.00
4576;BME280;2300;51.874;8.430;2022-07-22T03:15:15;101136.38;;;16.75;100.00
4576;BME280;2300;51.874;8.430;2022-07-22T03:17:41;101127.75;;;16.71;100.00
4576;BME280;2300;51.874;8.430;2022-07-22T03:20:10;101142.03;;;16.85;100.00
4576;BME280;2300;51.874;8.430;2022-07-22T03:22:37;101119.50;;;16.76;100.00
4576;BME280;2300;51.874;8.430;2022-07-22T03:25:04;101128.34;;;16.73;100.00
4576;BME280;2300;51.874;8.430;2022-07-22T03:27:31;101140.69;;;16.88;100.00
4576;BME280;2300;51.874;8.430;2022-07-22T03:29:57;101088.13;;;16.44;100.00
4576;BME280;2300;51.874;8.430;2022-07-22T03:32:24;101130.53;;;16.71;100.00
4576;BME280;2300;51.874;8.430;2022-07-22T03:34:50;101143.03;;;16.74;100.00
4576;BME280;2300;51.874;8.430;2022-07-22T03:37:18;101136.09;;;16.71;100.00
4576;BME280;2300;51.874;8.430;2022-07-22T03:39:45;101139.09;;;16.70;100.00
4576;BME280;2300;51.874;8.430;2022-07-22T03:42:11;101130.69;;;16.60;100.00
4576;BME280;2300;51.874;8.430;2022-07-22T03:44:38;101143.50;;;16.66;100.00
4576;BME280;2300;51.874;8.430;2022-07-22T03:47:04;101124.34;;;16.64;100.00
4576;BME280;2300;51.874;8.430;2022-07-22T03:49:31;101121.34;;;16.66;100.00
4576;BME280;2300;51.874;8.430;2022-07-22T03:51:58;101137.97;;;16.66;100.00
4576;BME280;2300;51.874;8.430;2022-07-22T03:54:26;101144.88;;;16.63;100.00
4576;BME280;2300;51.874;8.430;2022-07-22T03:56:52;101145.66;;;16.59;100.00
4576;BME280;2300;51.874;8.430;2022-07-22T03:59:18;101147.56;;;16.58;100.00
4576;BME280;2300;51.874;8.430;2022-07-22T04:01:45;101145.34;;;16.55;100.00
4576;BME280;2300;51.874;8.430;2022-07-22T04:04:11;101143.47;;;16.61;100.00
4576;BME280;2300;51.874;8.430;2022-07-22T04:06:38;101151.72;;;16.56;100.00
4576;BME280;2300;51.874;8.430;2022-07-22T04:09:04;101150.34;;;16.58;100.00
4576;BME280;2300;51.874;8.430;2022-07-22T04:11:32;101160.03;;;16.56;100.00
4576;BME280;2300;51.874;8.430;2022-07-22T04:13:58;101131.06;;;16.42;100.00
4576;BME280;2300;51.874;8.430;2022-07-22T04:16:25;101154.50;;;16.56;100.00
4576;BME280;2300;51.874;8.430;2022-07-22T04:18:51;101145.09;;;16.57;100.00
4576;BME280;2300;51.874;8.430;2022-07-22T04:21:18;101159.00;;;16.62;100.00
4576;BME280;2300;51.874;8.430;2022-07-22T04:23:44;101151.09;;;16.49;100.00
4576;BME280;2300;51.874;8.430;2022-07-22T04:26:11;101155.03;;;16.53;100.00
4576;BME280;2300;51.874;8.430;2022-07-22T04:28:39;101163.06;;;16.54;100.00
4576;BME280;2300;51.874;8.430;2022-07-22T04:31:05;101154.19;;;16.52;100.00
4576;BME280;2300;51.874;8.430;2022-07-22T04:33:32;101158.06;;;16.51;100.00
4576;BME280;2300;51.874;8.430;2022-07-22T04:35:58;101152.41;;;16.41;100.00
4576;BME280;2300;51.874;8.430;2022-07-22T04:38:25;101161.59;;;16.47;100.00
4576;BME280;2300;51.874;8.430;2022-07-22T04:40:52;101158.91;;;16.52;100.00
4576;BME280;2300;51.874;8.430;2022-07-22T04:43:18;101156.19;;;16.57;100.00
4576;BME280;2300;51.874;8.430;2022-07-22T04:45:46;101157.56;;;16.59;100.00
4576;BME280;2300;51.874;8.430;2022-07-22T04:48:13;101162.88;;;16.61;100.00
4576;BME280;2300;51.874;8.430;2022-07-22T04:50:40;101118.81;;;16.38;100.00
4576;BME280;2300;51.874;8.430;2022-07-22T04:53:06;101137.91;;;16.34;100.00
4576;BME280;2300;51.874;8.430;2022-07-22T04:55:33;101161.88;;;16.45;100.00
4576;BME280;2300;51.874;8.430;2022-07-22T04:58:00;101163.50;;;16.41;100.00
4576;BME280;2300;51.874;8.430;2022-07-22T05:00:27;101148.69;;;16.30;100.00
4576;BME280;2300;51.874;8.430;2022-07-22T05:02:55;101156.47;;;16.33;100.00
4576;BME280;2300;51.874;8.430;2022-07-22T05:05:22;101163.09;;;16.32;100.00
4576;BME280;2300;51.874;8.430;2022-07-22T05:07:49;101167.66;;;16.44;100.00
4576;BME280;2300;51.874;8.430;2022-07-22T05:10:16;101155.94;;;16.37;100.00
4576;BME280;2300;51.874;8.430;2022-07-22T05:12:43;101167.66;;;16.44;100.00
4576;BME280;2300;51.874;8.430;2022-07-22T05:15:10;101164.31;;;16.42;100.00
4576;BME280;2300;51.874;8.430;2022-07-22T05:17:36;101166.94;;;16.53;100.00
4576;BME280;2300;51.874;8.430;2022-07-22T05:20:05;101166.88;;;16.48;100.00
4576;BME280;2300;51.874;8.430;2022-07-22T05:22:32;101154.28;;;16.36;100.00
4576;BME280;2300;51.874;8.430;2022-07-22T05:24:58;101173.31;;;16.54;100.00
4576;BME280;2300;51.874;8.430;2022-07-22T05:27:24;101179.69;;;16.54;100.00
4576;BME280;2300;51.874;8.430;2022-07-22T05:29:51;101176.03;;;16.49;100.00
4576;BME280;2300;51.874;8.430;2022-07-22T05:32:17;101172.34;;;16.43;100.00
4576;BME280;2300;51.874;8.430;2022-07-22T05:34:44;101165.34;;;16.36;100.00
4576;BME280;2300;51.874;8.430;2022-07-22T05:37:12;101138.09;;;16.27;100.00
4576;BME280;2300;51.874;8.430;2022-07-22T05:39:38;101160.31;;;16.32;100.00
4576;BME280;2300;51.874;8.430;2022-07-22T05:42:05;101134.13;;;16.18;100.00
4576;BME280;2300;51.874;8.430;2022-07-22T05:44:31;101179.59;;;16.44;100.00
4576;BME280;2300;51.874;8.430;2022-07-22T05:46:57;101179.34;;;16.46;100.00
4576;BME280;2300;51.874;8.430;2022-07-22T05:49:24;101182.63;;;16.43;100.00
4576;BME280;2300;51.874;8.430;2022-07-22T05:52:20;101183.00;;;16.51;100.00
4576;BME280;2300;51.874;8.430;2022-07-22T05:54:46;101181.31;;;16.50;100.00
4576;BME280;2300;51.874;8.430;2022-07-22T05:57:13;101181.91;;;16.52;100.00
4576;BME280;2300;51.874;8.430;2022-07-22T05:59:40;101175.47;;;16.47;100.00
4576;BME280;2300;51.874;8.430;2022-07-22T06:02:07;101185.47;;;16.48;100.00
4576;BME280;2300;51.874;8.430;2022-07-22T06:04:34;101188.28;;;16.53;100.00
4576;BME280;2300;51.874;8.430;2022-07-22T06:07:00;101187.16;;;16.54;100.00
4576;BME280;2300;51.874;8.430;2022-07-22T06:09:28;101187.13;;;16.49;100.00
4576;BME280;2300;51.874;8.430;2022-07-22T06:11:55;101189.09;;;16.53;100.00
4576;BME280;2300;51.874;8.430;2022-07-22T06:14:21;101192.72;;;16.54;100.00
4576;BME280;2300;51.874;8.430;2022-07-22T06:16:48;101203.34;;;16.62;100.00
4576;BME280;2300;51.874;8.430;2022-07-22T06:19:14;101191.78;;;16.70;100.00
4576;BME280;2300;51.874;8.430;2022-07-22T06:21:41;101198.19;;;16.70;100.00
4576;BME280;2300;51.874;8.430;2022-07-22T06:24:08;101209.25;;;16.70;100.00
4576;BME280;2300;51.874;8.430;2022-07-22T06:26:36;101203.16;;;16.68;100.00
4576;BME280;2300;51.874;8.430;2022-07-22T06:29:03;101200.16;;;16.75;100.00
4576;BME280;2300;51.874;8.430;2022-07-22T06:31:30;101199.59;;;16.73;100.00
4576;BME280;2300;51.874;8.430;2022-07-22T06:33:57;101204.03;;;16.74;100.00
4576;BME280;2300;51.874;8.430;2022-07-22T06:36:23;101214.44;;;16.62;100.00
4576;BME280;2300;51.874;8.430;2022-07-22T06:38:50;101206.50;;;16.49;100.00
4576;BME280;2300;51.874;8.430;2022-07-22T06:41:16;101197.06;;;16.45;100.00
4576;BME280;2300;51.874;8.430;2022-07-22T06:43:46;101202.59;;;16.45;100.00
4576;BME280;2300;51.874;8.430;2022-07-22T06:46:12;101201.75;;;16.44;100.00
4576;BME280;2300;51.874;8.430;2022-07-22T06:48:39;101195.38;;;16.44;100.00
4576;BME280;2300;51.874;8.430;2022-07-22T06:51:05;101201.56;;;16.51;100.00
4576;BME280;2300;51.874;8.430;2022-07-22T06:53:32;101197.94;;;16.50;100.00
4576;BME280;2300;51.874;8.430;2022-07-22T06:55:58;101191.06;;;16.53;100.00
4576;BME280;2300;51.874;8.430;2022-07-22T06:58:25;101209.69;;;16.57;100.00
4576;BME280;2300;51.874;8.430;2022-07-22T07:00:53;101205.53;;;16.60;100.00
4576;BME280;2300;51.874;8.430;2022-07-22T07:03:19;101188.44;;;16.41;100.00
4576;BME280;2300;51.874;8.430;2022-07-22T07:05:47;101204.09;;;16.52;100.00
4576;BME280;2300;51.874;8.430;2022-07-22T07:08:13;101203.25;;;16.52;100.00
4576;BME280;2300;51.874;8.430;2022-07-22T07:10:40;101205.97;;;16.47;100.00
4576;BME280;2300;51.874;8.430;2022-07-22T07:13:06;101199.88;;;16.50;100.00
4576;BME280;2300;51.874;8.430;2022-07-22T07:15:33;101208.78;;;16.52;100.00
4576;BME280;2300;51.874;8.430;2022-07-22T07:18:01;101211.56;;;16.52;100.00
4576;BME280;2300;51.874;8.430;2022-07-22T07:20:27;101203.31;;;16.57;100.00
4576;BME280;2300;51.874;8.430;2022-07-22T07:22:54;101204.44;;;16.61;100.00
4576;BME280;2300;51.874;8.430;2022-07-22T07:25:21;101200.53;;;16.57;100.00
4576;BME280;2300;51.874;8.430;2022-07-22T07:27:48;101188.41;;;16.63;100.00
4576;BME280;2300;51.874;8.430;2022-07-22T07:30:14;101196.88;;;16.78;100.00
4576;BME280;2300;51.874;8.430;2022-07-22T07:32:41;101191.75;;;16.92;100.00
4576;BME280;2300;51.874;8.430;2022-07-22T07:35:09;101178.56;;;16.77;100.00
4576;BME280;2300;51.874;8.430;2022-07-22T07:37:36;101199.47;;;16.90;100.00
4576;BME280;2300;51.874;8.430;2022-07-22T07:40:03;101197.09;;;16.98;100.00
4576;BME280;2300;51.874;8.430;2022-07-22T07:42:30;101190.31;;;17.16;100.00
4576;BME280;2300;51.874;8.430;2022-07-22T07:44:56;101196.25;;;17.25;100.00
4576;BME280;2300;51.874;8.430;2022-07-22T07:47:23;101190.22;;;17.38;100.00
4576;BME280;2300;51.874;8.430;2022-07-22T07:49:50;101192.53;;;17.46;100.00
4576;BME280;2300;51.874;8.430;2022-07-22T07:52:18;101199.28;;;17.60;100.00
4576;BME280;2300;51.874;8.430;2022-07-22T07:54:44;101192.53;;;17.46;99.92
4576;BME280;2300;51.874;8.430;2022-07-22T07:57:12;101200.03;;;17.45;97.49
4576;BME280;2300;51.874;8.430;2022-07-22T07:59:39;101196.91;;;17.42;97.38
4576;BME280;2300;51.874;8.430;2022-07-22T08:02:06;101202.25;;;17.48;97.56
4576;BME280;2300;51.874;8.430;2022-07-22T08:04:35;101200.84;;;17.46;96.59
4576;BME280;2300;51.874;8.430;2022-07-22T08:07:01;101203.00;;;17.39;94.33
4576;BME280;2300;51.874;8.430;2022-07-22T08:09:30;101207.03;;;17.58;97.53
4576;BME280;2300;51.874;8.430;2022-07-22T08:11:56;101208.78;;;17.69;94.94
4576;BME280;2300;51.874;8.430;2022-07-22T08:14:22;101202.97;;;17.71;94.60
4576;BME280;2300;51.874;8.430;2022-07-22T08:16:49;101206.59;;;17.71;93.29
4576;BME280;2300;51.874;8.430;2022-07-22T08:19:16;101202.72;;;17.72;93.61
4576;BME280;2300;51.874;8.430;2022-07-22T08:21:42;101199.41;;;17.80;93.44
4576;BME280;2300;51.874;8.430;2022-07-22T08:24:09;101194.56;;;17.97;93.65
4576;BME280;2300;51.874;8.430;2022-07-22T08:26:37;101191.81;;;18.02;93.20
4576;BME280;2300;51.874;8.430;2022-07-22T08:29:04;101203.25;;;18.16;93.80
4576;BME280;2300;51.874;8.430;2022-07-22T08:31:33;101199.13;;;18.19;93.90
4576;BME280;2300;51.874;8.430;2022-07-22T08:34:00;101209.66;;;18.17;91.86
4576;BME280;2300;51.874;8.430;2022-07-22T08:36:27;101205.16;;;18.06;92.28
4576;BME280;2300;51.874;8.430;2022-07-22T08:38:53;101202.59;;;17.99;91.83
4576;BME280;2300;51.874;8.430;2022-07-22T08:41:21;101198.38;;;17.91;91.30
4576;BME280;2300;51.874;8.430;2022-07-22T08:43:51;101197.28;;;17.92;91.12
4576;BME280;2300;51.874;8.430;2022-07-22T08:46:18;101201.22;;;17.96;91.53
4576;BME280;2300;51.874;8.430;2022-07-22T08:48:45;101198.25;;;18.13;91.98
4576;BME280;2300;51.874;8.430;2022-07-22T08:51:12;101188.31;;;18.27;92.23
4576;BME280;2300;51.874;8.430;2022-07-22T08:53:38;101198.44;;;18.59;91.81
4576;BME280;2300;51.874;8.430;2022-07-22T08:56:06;101201.75;;;18.66;90.57
4576;BME280;2300;51.874;8.430;2022-07-22T08:58:32;101196.19;;;18.56;89.06
4576;BME280;2300;51.874;8.430;2022-07-22T09:01:09;101198.88;;;18.30;87.00
4576;BME280;2300;51.874;8.430;2022-07-22T09:03:45;101193.03;;;18.27;87.88
4576;BME280;2300;51.874;8.430;2022-07-22T09:06:12;101200.75;;;18.15;88.89
4576;BME280;2300;51.874;8.430;2022-07-22T09:08:50;101196.16;;;17.93;89.19
4576;BME280;2300;51.874;8.430;2022-07-22T09:11:18;101199.56;;;18.00;89.64
4576;BME280;2300;51.874;8.430;2022-07-22T09:13:45;101198.72;;;18.00;91.04
4576;BME280;2300;51.874;8.430;2022-07-22T09:16:14;101197.47;;;18.23;90.61
4576;BME280;2300;51.874;8.430;2022-07-22T09:18:45;101195.59;;;18.38;89.77
4576;BME280;2300;51.874;8.430;2022-07-22T09:21:12;101190.34;;;18.52;90.46
4576;BME280;2300;51.874;8.430;2022-07-22T09:23:40;101195.41;;;18.65;87.98
4576;BME280;2300;51.874;8.430;2022-07-22T09:26:07;101200.19;;;18.85;87.50
4576;BME280;2300;51.874;8.430;2022-07-22T09:28:33;101199.91;;;18.92;87.44
4576;BME280;2300;51.874;8.430;2022-07-22T09:31:03;101199.88;;;18.81;85.58
4576;BME280;2300;51.874;8.430;2022-07-22T09:33:31;101198.22;;;18.80;85.00
4576;BME280;2300;51.874;8.430;2022-07-22T09:36:02;101190.38;;;18.62;86.01
4576;BME280;2300;51.874;8.430;2022-07-22T09:38:29;101202.09;;;18.74;87.04
4576;BME280;2300;51.874;8.430;2022-07-22T09:40:57;101201.56;;;18.82;87.11
4576;BME280;2300;51.874;8.430;2022-07-22T09:43:25;101203.84;;;19.01;86.73
4576;BME280;2300;51.874;8.430;2022-07-22T09:45:57;101198.28;;;19.16;84.62
4576;BME280;2300;51.874;8.430;2022-07-22T09:48:24;101206.63;;;19.26;85.13
4576;BME280;2300;51.874;8.430;2022-07-22T09:50:54;101201.06;;;19.26;81.10
4576;BME280;2300;51.874;8.430;2022-07-22T09:53:27;101202.19;;;19.10;83.00
4576;BME280;2300;51.874;8.430;2022-07-22T09:55:54;101207.47;;;19.01;81.61
4576;BME280;2300;51.874;8.430;2022-07-22T09:58:22;101214.13;;;18.95;82.67
4576;BME280;2300;51.874;8.430;2022-07-22T10:00:49;101202.16;;;18.90;84.24
4576;BME280;2300;51.874;8.430;2022-07-22T10:03:20;101210.78;;;18.98;84.29
4576;BME280;2300;51.874;8.430;2022-07-22T10:05:49;101203.53;;;18.87;84.18
4576;BME280;2300;51.874;8.430;2022-07-22T10:08:18;101203.53;;;18.92;85.71
4576;BME280;2300;51.874;8.430;2022-07-22T10:10:45;101204.88;;;18.79;83.29
4576;BME280;2300;51.874;8.430;2022-07-22T10:13:12;101208.19;;;18.76;83.04
4576;BME280;2300;51.874;8.430;2022-07-22T10:15:39;101202.34;;;18.73;84.06
4576;BME280;2300;51.874;8.430;2022-07-22T10:18:07;101201.50;;;18.67;83.86
4576;BME280;2300;51.874;8.430;2022-07-22T10:20:34;101206.22;;;18.62;83.44
4576;BME280;2300;51.874;8.430;2022-07-22T10:23:09;101205.09;;;18.58;83.74
4576;BME280;2300;51.874;8.430;2022-07-22T10:25:50;101211.50;;;18.58;84.14
4576;BME280;2300;51.874;8.430;2022-07-22T10:28:22;101211.75;;;18.52;85.15
4576;BME280;2300;51.874;8.430;2022-07-22T10:30:49;101199.81;;;18.61;84.37
4576;BME280;2300;51.874;8.430;2022-07-22T10:33:17;101210.69;;;18.73;83.90
4576;BME280;2300;51.874;8.430;2022-07-22T10:35:56;101209.84;;;18.72;85.04
4576;BME280;2300;51.874;8.430;2022-07-22T10:38:24;101208.75;;;18.73;84.27
4576;BME280;2300;51.874;8.430;2022-07-22T10:40:57;101210.13;;;18.71;84.39
4576;BME280;2300;51.874;8.430;2022-07-22T10:43:25;101210.09;;;18.61;83.38
4576;BME280;2300;51.874;8.430;2022-07-22T10:45:54;101208.69;;;18.53;84.14
4576;BME280;2300;51.874;8.430;2022-07-22T10:48:24;101202.00;;;18.49;84.03
4576;BME280;2300;51.874;8.430;2022-07-22T10:50:53;101208.13;;;18.56;83.29
4576;BME280;2300;51.874;8.430;2022-07-22T10:53:23;101200.97;;;18.65;84.37
4576;BME280;2300;51.874;8.430;2022-07-22T10:56:00;101204.56;;;18.71;84.66
4576;BME280;2300;51.874;8.430;2022-07-22T10:58:45;101198.19;;;18.65;83.67
4576;BME280;2300;51.874;8.430;2022-07-22T11:01:15;101192.63;;;18.65;82.72
4576;BME280;2300;51.874;8.430;2022-07-22T11:03:43;101207.09;;;18.77;84.70
4576;BME280;2300;51.874;8.430;2022-07-22T11:06:28;101202.06;;;18.69;83.27
4576;BME280;2300;51.874;8.430;2022-07-22T11:08:57;101202.59;;;18.66;82.36
4576;BME280;2300;51.874;8.430;2022-07-22T11:11:38;101199.28;;;18.64;83.50
4576;BME280;2300;51.874;8.430;2022-07-22T11:14:18;101202.63;;;18.71;83.25
4576;BME280;2300;51.874;8.430;2022-07-22T11:16:46;101201.50;;;18.72;83.43
4576;BME280;2300;51.874;8.430;2022-07-22T11:19:13;101195.41;;;18.65;83.49
4576;BME280;2300;51.874;8.430;2022-07-22T11:21:39;101200.16;;;18.80;83.56
4576;BME280;2300;51.874;8.430;2022-07-22T11:24:07;101195.16;;;18.82;82.62
4576;BME280;2300;51.874;8.430;2022-07-22T11:26:40;101196.53;;;18.79;82.39
4576;BME280;2300;51.874;8.430;2022-07-22T11:29:07;101196.00;;;18.82;82.11
4576;BME280;2300;51.874;8.430;2022-07-22T11:31:34;101194.63;;;18.85;81.00
4576;BME280;2300;51.874;8.430;2022-07-22T11:34:06;101189.63;;;18.92;82.81
4576;BME280;2300;51.874;8.430;2022-07-22T11:36:35;101187.69;;;18.98;83.24
4576;BME280;2300;51.874;8.430;2022-07-22T11:39:03;101186.84;;;18.97;82.70
4576;BME280;2300;51.874;8.430;2022-07-22T11:41:30;101183.78;;;18.99;81.78
4576;BME280;2300;51.874;8.430;2022-07-22T11:43:58;101175.19;;;19.00;81.61
4576;BME280;2300;51.874;8.430;2022-07-22T11:46:25;101180.72;;;18.95;81.47
4576;BME280;2300;51.874;8.430;2022-07-22T11:48:53;101175.44;;;18.83;80.83
4576;BME280;2300;51.874;8.430;2022-07-22T11:51:20;101183.78;;;18.89;81.42
4576;BME280;2300;51.874;8.430;2022-07-22T11:53:46;101175.44;;;18.94;80.25
4576;BME280;2300;51.874;8.430;2022-07-22T11:56:13;101166.81;;;18.90;81.18
4576;BME280;2300;51.874;8.430;2022-07-22T11:58:41;101171.53;;;18.84;83.07
4576;BME280;2300;51.874;8.430;2022-07-22T12:01:11;101173.50;;;18.99;80.52
4576;BME280;2300;51.874;8.430;2022-07-22T12:03:41;101172.66;;;18.89;82.11
4576;BME280;2300;51.874;8.430;2022-07-22T12:06:12;101171.56;;;19.00;81.00
4576;BME280;2300;51.874;8.430;2022-07-22T12:08:42;101175.44;;;19.04;81.13
4576;BME280;2300;51.874;8.430;2022-07-22T12:11:10;101176.84;;;19.11;82.02
4576;BME280;2300;51.874;8.430;2022-07-22T12:13:41;101180.19;;;19.13;79.78
4576;BME280;2300;51.874;8.430;2022-07-22T12:16:20;101186.03;;;19.17;81.38
4576;BME280;2300;51.874;8.430;2022-07-22T12:18:52;101180.47;;;19.17;80.95
4576;BME280;2300;51.874;8.430;2022-07-22T12:21:19;101182.13;;;19.23;81.59
4576;BME280;2300;51.874;8.430;2022-07-22T12:23:51;101172.66;;;19.29;80.59
4576;BME280;2300;51.874;8.430;2022-07-22T12:26:18;101177.13;;;19.35;80.57
4576;BME280;2300;51.874;8.430;2022-07-22T12:28:45;101181.31;;;19.43;81.87
4576;BME280;2300;51.874;8.430;2022-07-22T12:31:11;101177.38;;;19.39;79.99
4576;BME280;2300;51.874;8.430;2022-07-22T12:33:47;101179.91;;;19.45;79.33
4576;BME280;2300;51.874;8.430;2022-07-22T12:36:14;101170.16;;;19.43;80.46
4576;BME280;2300;51.874;8.430;2022-07-22T12:38:40;101173.50;;;19.45;78.85
4576;BME280;2300;51.874;8.430;2022-07-22T12:41:27;101169.31;;;19.47;80.17
4576;BME280;2300;51.874;8.430;2022-07-22T12:43:55;101165.69;;;19.52;79.73
4576;BME280;2300;51.874;8.430;2022-07-22T12:46:21;101164.84;;;19.56;78.77
4576;BME280;2300;51.874;8.430;2022-07-22T12:48:50;101160.38;;;19.60;78.84
4576;BME280;2300;51.874;8.430;2022-07-22T12:51:17;101155.91;;;19.59;79.82
4576;BME280;2300;51.874;8.430;2022-07-22T12:53:44;101162.06;;;19.56;79.37
4576;BME280;2300;51.874;8.430;2022-07-22T12:56:10;101161.50;;;19.59;79.39
4576;BME280;2300;51.874;8.430;2022-07-22T12:58:37;101153.13;;;19.54;77.89
4576;BME280;2300;51.874;8.430;2022-07-22T13:01:07;101156.50;;;19.56;79.21
4576;BME280;2300;51.874;8.430;2022-07-22T13:03:34;101159.31;;;19.41;77.86
4576;BME280;2300;51.874;8.430;2022-07-22T13:06:03;101159.03;;;19.48;78.12
4576;BME280;2300;51.874;8.430;2022-07-22T13:08:30;101152.31;;;19.44;79.27